createdAt,value
2018-11-05T00:00:27.376Z,63.76
2018-11-05T00:00:58.973Z,63.80
2018-11-05T00:01:30.561Z,63.89
2018-11-05T00:02:02.193Z,63.94
2018-11-05T00:02:33.815Z,63.98
2018-11-05T00:03:05.402Z,64.03
2018-11-05T00:03:37.011Z,64.28
2018-11-05T00:04:08.589Z,64.34
2018-11-05T00:04:40.176Z,64.40
2018-11-05T00:05:11.786Z,64.51
2018-11-05T00:05:43.394Z,64.53
2018-11-05T00:06:14.985Z,64.61
2018-11-05T00:06:46.581Z,64.74
2018-11-05T00:07:18.199Z,64.81
2018-11-05T00:07:49.801Z,64.83
2018-11-05T00:08:21.388Z,64.93
2018-11-05T00:08:52.976Z,65.08
2018-11-05T00:09:24.566Z,65.14
2018-11-05T00:09:56.156Z,65.16
2018-11-05T00:10:27.745Z,65.23
2018-11-05T00:10:59.335Z,65.37
2018-11-05T00:11:30.934Z,65.56
2018-11-05T00:12:02.511Z,65.55
2018-11-05T00:12:34.124Z,65.64
2018-11-05T00:13:05.722Z,65.67
2018-11-05T00:13:37.298Z,65.63
2018-11-05T00:14:08.895Z,65.60
2018-11-05T00:14:40.484Z,65.68
2018-11-05T00:15:12.082Z,65.75
2018-11-05T00:15:43.691Z,65.68
2018-11-05T00:16:15.276Z,65.79
2018-11-05T00:16:46.868Z,65.80
2018-11-05T00:17:18.480Z,65.85
2018-11-05T00:17:50.064Z,66.00
2018-11-05T00:18:21.651Z,65.94
2018-11-05T00:18:53.229Z,66.11
2018-11-05T00:19:24.819Z,66.18
2018-11-05T00:19:56.426Z,66.16
2018-11-05T00:20:28.021Z,66.23
2018-11-05T00:20:59.615Z,66.32
2018-11-05T00:21:31.190Z,66.40
2018-11-05T00:22:02.766Z,66.49
2018-11-05T00:22:34.380Z,66.56
2018-11-05T00:23:05.983Z,66.46
2018-11-05T00:23:37.572Z,66.67
2018-11-05T00:24:09.170Z,66.72
2018-11-05T00:24:40.760Z,66.79
2018-11-05T00:25:12.350Z,66.82
2018-11-05T00:25:43.940Z,66.84
2018-11-05T00:26:15.533Z,66.91
2018-11-05T00:26:47.138Z,66.97
2018-11-05T00:27:18.746Z,66.96
2018-11-05T00:27:50.349Z,66.86
2018-11-05T00:28:21.941Z,67.08
2018-11-05T00:28:53.554Z,67.00
2018-11-05T00:29:25.149Z,67.01
2018-11-05T00:29:56.766Z,67.20
2018-11-05T00:30:28.377Z,67.25
2018-11-05T00:30:59.963Z,67.28
2018-11-05T00:31:31.574Z,67.24
2018-11-05T00:32:03.169Z,67.24
2018-11-05T00:32:34.766Z,67.52
2018-11-05T00:33:06.365Z,67.87
2018-11-05T00:33:37.970Z,67.87
2018-11-05T00:34:09.575Z,67.81
2018-11-05T00:34:41.174Z,67.63
2018-11-05T00:35:12.781Z,67.55
2018-11-05T00:35:44.938Z,67.55
2018-11-05T00:36:16.527Z,67.51
2018-11-05T00:36:48.130Z,67.53
2018-11-05T00:37:19.759Z,67.52
2018-11-05T00:37:51.351Z,67.67
2018-11-05T00:38:22.940Z,67.55
2018-11-05T00:38:54.537Z,67.52
2018-11-05T00:39:26.139Z,67.45
2018-11-05T00:39:57.746Z,67.42
2018-11-05T00:40:29.332Z,67.44
2018-11-05T00:41:00.928Z,67.41
2018-11-05T00:41:32.530Z,67.50
2018-11-05T00:42:04.149Z,67.56
2018-11-05T00:42:35.782Z,67.42
2018-11-05T00:43:07.386Z,67.41
2018-11-05T00:43:38.972Z,67.38
2018-11-05T00:44:10.564Z,67.37
2018-11-05T00:44:42.166Z,67.47
2018-11-05T00:45:13.760Z,67.37
2018-11-05T00:45:45.415Z,67.48
2018-11-05T00:46:16.979Z,67.51
2018-11-05T00:46:48.583Z,67.61
2018-11-05T00:47:20.203Z,67.52
2018-11-05T00:47:51.851Z,67.64
2018-11-05T00:48:23.459Z,67.53
2018-11-05T00:48:55.067Z,67.46
2018-11-05T00:49:26.664Z,67.55
2018-11-05T00:49:58.242Z,67.51
2018-11-05T00:50:29.829Z,67.46
2018-11-05T00:51:01.420Z,67.53
2018-11-05T00:51:33.008Z,67.31
2018-11-05T00:52:04.603Z,67.51
2018-11-05T00:52:36.225Z,67.47
2018-11-05T00:53:07.811Z,67.51
2018-11-05T00:53:39.400Z,67.50
2018-11-05T00:54:11.011Z,67.46
2018-11-05T00:54:42.617Z,67.59
2018-11-05T00:55:14.204Z,67.69
2018-11-05T00:55:45.804Z,67.52
2018-11-05T00:56:17.406Z,67.47
2018-11-05T00:56:48.996Z,67.54
2018-11-05T00:57:20.607Z,67.47
2018-11-05T00:57:52.192Z,67.45
2018-11-05T00:58:23.780Z,67.55
2018-11-05T00:58:55.372Z,67.50
2018-11-05T00:59:26.978Z,67.62
2018-11-05T00:59:58.583Z,67.61
2018-11-05T01:00:30.185Z,68.04
2018-11-05T01:01:01.792Z,67.93
2018-11-05T01:01:33.446Z,67.93
2018-11-05T01:02:05.025Z,67.85
2018-11-05T01:02:36.640Z,67.77
2018-11-05T01:03:08.231Z,67.85
2018-11-05T01:03:39.837Z,67.91
2018-11-05T01:04:11.442Z,67.88
2018-11-05T01:04:43.040Z,67.86
2018-11-05T01:05:15.680Z,67.69
2018-11-05T01:05:47.272Z,67.74
2018-11-05T01:06:18.892Z,67.58
2018-11-05T01:06:50.500Z,67.62
2018-11-05T01:07:22.115Z,67.58
2018-11-05T01:07:53.690Z,67.42
2018-11-05T01:08:25.277Z,67.59
2018-11-05T01:08:56.882Z,67.42
2018-11-05T01:09:28.490Z,67.33
2018-11-05T01:10:00.094Z,67.36
2018-11-05T01:10:31.690Z,67.29
2018-11-05T01:11:03.294Z,67.16
2018-11-05T01:11:34.898Z,67.24
2018-11-05T01:12:06.507Z,67.43
2018-11-05T01:12:38.124Z,67.35
2018-11-05T01:13:09.716Z,67.44
2018-11-05T01:13:41.304Z,67.36
2018-11-05T01:14:12.903Z,67.31
2018-11-05T01:14:44.482Z,67.16
2018-11-05T01:15:16.072Z,67.43
2018-11-05T01:15:47.674Z,67.15
2018-11-05T01:16:19.277Z,67.14
2018-11-05T01:16:50.886Z,67.13
2018-11-05T01:17:22.519Z,67.33
2018-11-05T01:17:54.126Z,67.18
2018-11-05T01:18:25.727Z,67.11
2018-11-05T01:18:57.312Z,67.21
2018-11-05T01:19:28.900Z,67.32
2018-11-05T01:20:00.487Z,67.30
2018-11-05T01:20:32.072Z,67.28
2018-11-05T01:21:03.671Z,67.18
2018-11-05T01:21:35.249Z,67.13
2018-11-05T01:22:06.849Z,67.13
2018-11-05T01:22:38.475Z,67.19
2018-11-05T01:23:10.081Z,67.33
2018-11-05T01:23:41.668Z,67.20
2018-11-05T01:24:13.248Z,67.13
2018-11-05T01:24:44.850Z,67.18
2018-11-05T01:25:16.454Z,67.12
2018-11-05T01:25:48.040Z,67.11
2018-11-05T01:26:19.632Z,66.97
2018-11-05T01:26:51.210Z,67.02
2018-11-05T01:27:22.823Z,66.89
2018-11-05T01:27:54.450Z,66.94
2018-11-05T01:28:26.039Z,66.96
2018-11-05T01:28:57.633Z,66.99
2018-11-05T01:29:29.225Z,66.87
2018-11-05T01:30:00.817Z,66.83
2018-11-05T01:30:32.408Z,66.80
2018-11-05T01:31:03.996Z,66.83
2018-11-05T01:31:35.598Z,66.88
2018-11-05T01:32:07.200Z,66.81
2018-11-05T01:32:38.830Z,66.79
2018-11-05T01:33:10.403Z,66.77
2018-11-05T01:33:42.007Z,66.81
2018-11-05T01:34:13.596Z,66.78
2018-11-05T01:34:45.175Z,66.79
2018-11-05T01:35:16.788Z,66.69
2018-11-05T01:35:48.390Z,66.84
2018-11-05T01:36:19.970Z,66.79
2018-11-05T01:36:51.570Z,66.84
2018-11-05T01:37:23.255Z,66.69
2018-11-05T01:37:54.814Z,66.86
2018-11-05T01:38:26.399Z,66.63
2018-11-05T01:38:57.988Z,66.62
2018-11-05T01:39:29.571Z,67.06
2018-11-05T01:40:01.160Z,67.01
2018-11-05T01:40:32.762Z,66.89
2018-11-05T01:41:04.347Z,67.02
2018-11-05T01:41:35.938Z,66.94
2018-11-05T01:42:07.541Z,66.92
2018-11-05T01:42:39.164Z,66.84
2018-11-05T01:43:10.756Z,66.87
2018-11-05T01:43:42.335Z,66.88
2018-11-05T01:44:13.930Z,66.81
2018-11-05T01:44:45.534Z,66.84
2018-11-05T01:45:17.123Z,66.91
2018-11-05T01:45:48.726Z,66.86
2018-11-05T01:46:20.324Z,67.01
2018-11-05T01:46:51.916Z,67.05
2018-11-05T01:47:23.498Z,66.96
2018-11-05T01:47:55.098Z,66.85
2018-11-05T01:48:26.683Z,66.87
2018-11-05T01:48:58.443Z,66.87
2018-11-05T01:49:30.046Z,66.80
2018-11-05T01:50:01.640Z,66.81
2018-11-05T01:50:33.245Z,66.79
2018-11-05T01:51:04.842Z,66.85
2018-11-05T01:51:36.431Z,66.83
2018-11-05T01:52:08.020Z,66.82
2018-11-05T01:52:39.608Z,66.80
2018-11-05T01:53:11.223Z,66.82
2018-11-05T01:53:42.808Z,66.71
2018-11-05T01:54:14.396Z,66.80
2018-11-05T01:54:45.984Z,66.73
2018-11-05T01:55:17.562Z,66.68
2018-11-05T01:55:49.152Z,66.72
2018-11-05T01:56:20.754Z,66.68
2018-11-05T01:56:52.353Z,66.70
2018-11-05T01:57:23.943Z,66.78
2018-11-05T01:57:55.532Z,66.77
2018-11-05T01:58:27.117Z,66.73
2018-11-05T01:58:58.713Z,66.96
2018-11-05T01:59:30.322Z,67.01
2018-11-05T02:00:01.920Z,66.97
2018-11-05T02:00:33.507Z,66.94
2018-11-05T02:01:05.101Z,66.99
2018-11-05T02:01:36.711Z,67.01
2018-11-05T02:02:08.290Z,66.97
2018-11-05T02:02:39.900Z,66.96
2018-11-05T02:03:11.519Z,66.99
2018-11-05T02:03:43.104Z,67.04
2018-11-05T02:04:14.706Z,67.00
2018-11-05T02:04:46.296Z,67.00
2018-11-05T02:05:17.879Z,66.98
2018-11-05T02:05:49.466Z,66.99
2018-11-05T02:06:21.078Z,66.96
2018-11-05T02:06:52.667Z,67.02
2018-11-05T02:07:24.255Z,67.01
2018-11-05T02:07:55.868Z,66.99
2018-11-05T02:08:27.459Z,67.07
2018-11-05T02:08:59.041Z,67.17
2018-11-05T02:09:30.633Z,67.12
2018-11-05T02:10:02.266Z,67.12
2018-11-05T02:10:33.851Z,67.14
2018-11-05T02:11:05.441Z,67.16
2018-11-05T02:11:37.036Z,67.15
2018-11-05T02:12:08.624Z,67.12
2018-11-05T02:12:40.217Z,67.14
2018-11-05T02:13:11.890Z,67.13
2018-11-05T02:13:43.466Z,67.12
2018-11-05T02:14:15.055Z,67.13
2018-11-05T02:14:46.657Z,67.13
2018-11-05T02:15:18.248Z,67.20
2018-11-05T02:15:49.851Z,67.06
2018-11-05T02:16:21.466Z,67.07
2018-11-05T02:16:53.067Z,67.09
2018-11-05T02:17:24.666Z,67.03
2018-11-05T02:17:56.270Z,67.03
2018-11-05T02:18:27.961Z,67.07
2018-11-05T02:18:59.556Z,67.14
2018-11-05T02:19:31.144Z,67.03
2018-11-05T02:20:02.735Z,67.04
2018-11-05T02:20:34.319Z,67.03
2018-11-05T02:21:05.908Z,67.00
2018-11-05T02:21:37.510Z,67.03
2018-11-05T02:22:09.114Z,66.97
2018-11-05T02:22:40.708Z,66.98
2018-11-05T02:23:12.314Z,66.99
2018-11-05T02:23:43.937Z,66.99
2018-11-05T02:24:15.517Z,67.19
2018-11-05T02:24:47.122Z,67.10
2018-11-05T02:25:18.712Z,67.11
2018-11-05T02:25:50.307Z,67.08
2018-11-05T02:26:21.887Z,67.02
2018-11-05T02:26:53.483Z,67.06
2018-11-05T02:27:25.142Z,66.89
2018-11-05T02:27:56.682Z,66.82
2018-11-05T02:28:28.286Z,66.89
2018-11-05T02:28:59.876Z,66.88
2018-11-05T02:29:31.463Z,66.82
2018-11-05T02:30:03.056Z,66.90
2018-11-05T02:30:34.651Z,66.88
2018-11-05T02:31:06.240Z,66.90
2018-11-05T02:31:37.813Z,66.98
2018-11-05T02:32:09.403Z,66.91
2018-11-05T02:32:40.994Z,66.95
2018-11-05T02:33:12.598Z,66.95
2018-11-05T02:33:44.215Z,66.89
2018-11-05T02:34:15.804Z,67.03
2018-11-05T02:34:47.398Z,67.07
2018-11-05T02:35:18.982Z,67.17
2018-11-05T02:35:50.582Z,67.08
2018-11-05T02:36:22.176Z,67.07
2018-11-05T02:36:53.773Z,67.13
2018-11-05T02:37:25.378Z,67.09
2018-11-05T02:37:56.985Z,67.03
2018-11-05T02:38:28.606Z,67.12
2018-11-05T02:39:00.232Z,67.14
2018-11-05T02:39:31.820Z,67.00
2018-11-05T02:40:03.430Z,67.02
2018-11-05T02:40:35.027Z,67.06
2018-11-05T02:41:06.616Z,67.00
2018-11-05T02:41:38.249Z,67.06
2018-11-05T02:42:09.858Z,67.02
2018-11-05T02:42:41.469Z,67.10
2018-11-05T02:43:13.070Z,67.12
2018-11-05T02:43:44.674Z,67.16
2018-11-05T02:44:16.274Z,67.24
2018-11-05T02:44:47.860Z,67.22
2018-11-05T02:45:19.453Z,67.16
2018-11-05T02:45:51.058Z,67.12
2018-11-05T02:46:22.670Z,67.22
2018-11-05T02:46:54.260Z,67.29
2018-11-05T02:47:25.868Z,67.21
2018-11-05T02:47:57.459Z,67.25
2018-11-05T02:48:29.051Z,67.19
2018-11-05T02:49:00.672Z,67.22
2018-11-05T02:49:32.250Z,67.27
2018-11-05T02:50:03.822Z,67.21
2018-11-05T02:50:35.408Z,67.28
2018-11-05T02:51:07.005Z,67.25
2018-11-05T02:51:38.604Z,67.26
2018-11-05T02:52:10.195Z,67.50
2018-11-05T02:52:41.795Z,67.47
2018-11-05T02:53:13.383Z,67.39
2018-11-05T02:53:44.980Z,67.40
2018-11-05T02:54:16.605Z,67.28
2018-11-05T02:54:48.200Z,67.30
2018-11-05T02:55:19.788Z,67.37
2018-11-05T02:55:51.381Z,67.25
2018-11-05T02:56:22.975Z,67.31
2018-11-05T02:56:54.568Z,67.23
2018-11-05T02:57:26.165Z,67.22
2018-11-05T02:57:57.756Z,67.40
2018-11-05T02:58:29.357Z,67.35
2018-11-05T02:59:00.966Z,67.33
2018-11-05T02:59:32.541Z,67.27
2018-11-05T03:00:04.146Z,67.17
2018-11-05T03:00:35.736Z,67.19
2018-11-05T03:01:07.324Z,67.19
2018-11-05T03:01:38.902Z,67.22
2018-11-05T03:02:10.487Z,67.20
2018-11-05T03:02:42.079Z,67.21
2018-11-05T03:03:13.731Z,67.29
2018-11-05T03:03:45.267Z,67.19
2018-11-05T03:04:16.941Z,67.12
2018-11-05T03:04:48.542Z,67.16
2018-11-05T03:05:20.144Z,67.15
2018-11-05T03:05:51.754Z,67.09
2018-11-05T03:06:23.339Z,67.05
2018-11-05T03:06:54.923Z,67.08
2018-11-05T03:07:26.509Z,67.12
2018-11-05T03:07:58.108Z,66.98
2018-11-05T03:08:29.695Z,67.08
2018-11-05T03:09:01.299Z,67.12
2018-11-05T03:09:32.907Z,67.10
2018-11-05T03:10:04.500Z,67.10
2018-11-05T03:10:36.103Z,67.12
2018-11-05T03:11:07.701Z,67.07
2018-11-05T03:11:39.299Z,67.03
2018-11-05T03:12:10.902Z,67.06
2018-11-05T03:12:42.511Z,67.11
2018-11-05T03:13:14.106Z,67.05
2018-11-05T03:13:45.703Z,67.08
2018-11-05T03:14:17.304Z,67.08
2018-11-05T03:14:48.937Z,67.12
2018-11-05T03:15:20.528Z,67.14
2018-11-05T03:15:52.110Z,67.15
2018-11-05T03:16:23.700Z,67.18
2018-11-05T03:16:55.307Z,67.19
2018-11-05T03:17:26.914Z,67.25
2018-11-05T03:17:58.504Z,67.23
2018-11-05T03:18:30.097Z,67.20
2018-11-05T03:19:01.696Z,67.18
2018-11-05T03:19:33.312Z,67.14
2018-11-05T03:20:04.900Z,67.29
2018-11-05T03:20:36.510Z,67.31
2018-11-05T03:21:08.117Z,67.24
2018-11-05T03:21:39.722Z,67.62
2018-11-05T03:22:11.326Z,67.41
2018-11-05T03:22:42.921Z,67.50
2018-11-05T03:23:14.508Z,67.41
2018-11-05T03:23:46.103Z,67.53
2018-11-05T03:24:17.696Z,67.57
2018-11-05T03:24:49.310Z,67.61
2018-11-05T03:25:20.896Z,67.55
2018-11-05T03:25:52.502Z,67.60
2018-11-05T03:26:24.096Z,67.58
2018-11-05T03:26:55.684Z,67.53
2018-11-05T03:27:27.290Z,67.60
2018-11-05T03:27:58.866Z,67.66
2018-11-05T03:28:30.477Z,67.68
2018-11-05T03:29:02.069Z,67.66
2018-11-05T03:29:33.668Z,67.71
2018-11-05T03:30:05.297Z,67.70
2018-11-05T03:30:36.883Z,67.77
2018-11-05T03:31:08.464Z,67.93
2018-11-05T03:31:40.070Z,68.24
2018-11-05T03:32:11.670Z,68.13
2018-11-05T03:32:43.276Z,68.18
2018-11-05T03:33:14.882Z,68.00
2018-11-05T03:33:46.476Z,68.03
2018-11-05T03:34:18.078Z,67.93
2018-11-05T03:34:49.697Z,67.88
2018-11-05T03:35:21.279Z,67.96
2018-11-05T03:35:52.896Z,67.84
2018-11-05T03:36:24.479Z,67.82
2018-11-05T03:36:56.053Z,67.71
2018-11-05T03:37:27.643Z,67.66
2018-11-05T03:37:59.247Z,67.70
2018-11-05T03:38:30.837Z,67.62
2018-11-05T03:39:02.442Z,67.52
2018-11-05T03:39:34.022Z,67.58
2018-11-05T03:40:05.650Z,67.65
2018-11-05T03:40:37.250Z,67.59
2018-11-05T03:41:08.826Z,68.46
2018-11-05T03:41:40.398Z,67.91
2018-11-05T03:42:11.988Z,67.76
2018-11-05T03:42:43.603Z,67.70
2018-11-05T03:43:15.200Z,67.70
2018-11-05T03:43:46.788Z,67.48
2018-11-05T03:44:18.497Z,67.56
2018-11-05T03:44:50.212Z,67.39
2018-11-05T03:45:21.816Z,67.40
2018-11-05T03:45:53.398Z,67.36
2018-11-05T03:46:24.996Z,67.42
2018-11-05T03:46:56.604Z,67.38
2018-11-05T03:47:28.182Z,67.41
2018-11-05T03:47:59.786Z,67.35
2018-11-05T03:48:31.390Z,67.33
2018-11-05T03:49:02.980Z,67.23
2018-11-05T03:49:34.587Z,67.24
2018-11-05T03:50:06.170Z,67.35
2018-11-05T03:50:37.784Z,67.33
2018-11-05T03:51:09.386Z,67.27
2018-11-05T03:51:40.985Z,67.07
2018-11-05T03:52:12.590Z,62.96
2018-11-05T03:52:44.177Z,59.06
2018-11-05T03:53:15.778Z,57.08
2018-11-05T03:53:47.405Z,56.02
2018-11-05T03:54:18.981Z,56.92
2018-11-05T03:54:50.604Z,55.83
2018-11-05T03:55:22.267Z,55.72
2018-11-05T03:55:53.891Z,54.94
2018-11-05T03:56:25.458Z,55.65
2018-11-05T03:56:57.065Z,54.60
2018-11-05T03:57:28.652Z,55.30
2018-11-05T03:58:00.240Z,55.17
2018-11-05T03:58:31.836Z,55.17
2018-11-05T03:59:03.443Z,54.30
2018-11-05T03:59:35.033Z,54.50
2018-11-05T04:00:06.626Z,55.04
2018-11-05T04:00:38.227Z,53.37
2018-11-05T04:01:09.838Z,52.73
2018-11-05T04:01:41.424Z,52.69
2018-11-05T04:02:13.026Z,53.48
2018-11-05T04:02:44.629Z,54.12
2018-11-05T04:03:16.274Z,53.35
2018-11-05T04:03:47.869Z,53.31
2018-11-05T04:04:19.472Z,52.63
2018-11-05T04:04:51.097Z,56.33
2018-11-05T04:05:22.702Z,58.35
2018-11-05T04:05:54.305Z,59.57
2018-11-05T04:06:25.896Z,60.84
2018-11-05T04:06:57.503Z,60.24
2018-11-05T04:07:29.114Z,59.47
2018-11-05T04:08:00.706Z,59.36
2018-11-05T04:08:32.290Z,59.04
2018-11-05T04:09:03.878Z,58.79
2018-11-05T04:09:35.481Z,58.48
2018-11-05T04:10:07.096Z,58.24
2018-11-05T04:10:38.677Z,58.06
2018-11-05T04:11:10.261Z,57.90
2018-11-05T04:11:41.877Z,57.99
2018-11-05T04:12:13.474Z,58.08
2018-11-05T04:12:45.074Z,57.82
2018-11-05T04:13:16.664Z,58.10
2018-11-05T04:13:48.271Z,58.16
2018-11-05T04:14:19.879Z,58.32
2018-11-05T04:14:51.486Z,58.23
2018-11-05T04:15:23.157Z,58.31
2018-11-05T04:15:54.776Z,58.42
2018-11-05T04:16:26.347Z,58.59
2018-11-05T04:16:57.953Z,58.69
2018-11-05T04:17:29.548Z,58.51
2018-11-05T04:18:01.158Z,58.81
2018-11-05T04:18:32.739Z,58.77
2018-11-05T04:19:04.328Z,58.92
2018-11-05T04:19:35.929Z,58.88
2018-11-05T04:20:07.542Z,59.00
2018-11-05T04:20:39.150Z,58.97
2018-11-05T04:21:10.726Z,59.11
2018-11-05T04:21:42.315Z,59.14
2018-11-05T04:22:13.910Z,59.14
2018-11-05T04:22:45.503Z,59.20
2018-11-05T04:23:17.086Z,59.31
2018-11-05T04:23:48.686Z,59.40
2018-11-05T04:24:20.272Z,59.38
2018-11-05T04:24:51.875Z,59.42
2018-11-05T04:25:23.478Z,59.57
2018-11-05T04:25:55.064Z,59.57
2018-11-05T04:26:26.650Z,59.53
2018-11-05T04:26:58.254Z,59.47
2018-11-05T04:27:29.847Z,59.52
2018-11-05T04:28:01.641Z,59.54
2018-11-05T04:28:33.074Z,59.65
2018-11-05T04:29:04.663Z,59.65
2018-11-05T04:29:36.267Z,59.75
2018-11-05T04:30:07.865Z,59.73
2018-11-05T04:30:39.484Z,59.84
2018-11-05T04:31:11.069Z,59.84
2018-11-05T04:31:42.669Z,59.84
2018-11-05T04:32:14.256Z,59.84
2018-11-05T04:32:45.848Z,59.91
2018-11-05T04:33:17.450Z,59.88
2018-11-05T04:33:49.055Z,59.80
2018-11-05T04:34:20.659Z,59.92
2018-11-05T04:34:52.256Z,59.92
2018-11-05T04:35:23.877Z,59.96
2018-11-05T04:35:55.489Z,60.06
2018-11-05T04:36:27.067Z,60.05
2018-11-05T04:36:58.666Z,60.11
2018-11-05T04:37:30.278Z,60.15
2018-11-05T04:38:01.883Z,60.18
2018-11-05T04:38:33.487Z,60.21
2018-11-05T04:39:05.086Z,60.20
2018-11-05T04:39:36.680Z,60.24
2018-11-05T04:40:08.285Z,60.26
2018-11-05T04:40:39.898Z,60.25
2018-11-05T04:41:11.485Z,60.26
2018-11-05T04:41:43.075Z,60.27
2018-11-05T04:42:14.682Z,60.29
2018-11-05T04:42:46.274Z,60.37
2018-11-05T04:43:17.882Z,60.35
2018-11-05T04:43:49.476Z,60.41
2018-11-05T04:44:21.054Z,60.47
2018-11-05T04:44:52.639Z,60.49
2018-11-05T04:45:24.228Z,60.51
2018-11-05T04:45:55.856Z,60.55
2018-11-05T04:46:27.448Z,60.56
2018-11-05T04:46:59.042Z,60.56
2018-11-05T04:47:30.632Z,60.61
2018-11-05T04:48:02.231Z,60.64
2018-11-05T04:48:33.819Z,60.63
2018-11-05T04:49:05.416Z,60.60
2018-11-05T04:49:37.008Z,60.64
2018-11-05T04:50:08.582Z,60.66
2018-11-05T04:50:40.186Z,60.67
2018-11-05T04:51:11.816Z,60.71
2018-11-05T04:51:43.408Z,60.67
2018-11-05T04:52:15.010Z,60.75
2018-11-05T04:52:46.626Z,60.78
2018-11-05T04:53:18.228Z,60.84
2018-11-05T04:53:49.829Z,60.84
2018-11-05T04:54:21.410Z,60.87
2018-11-05T04:54:53.006Z,60.92
2018-11-05T04:55:24.589Z,60.96
2018-11-05T04:55:56.217Z,60.95
2018-11-05T04:56:27.818Z,61.00
2018-11-05T04:56:59.422Z,61.01
2018-11-05T04:57:31.025Z,61.05
2018-11-05T04:58:02.615Z,61.04
2018-11-05T04:58:34.203Z,61.09
2018-11-05T04:59:05.787Z,61.11
2018-11-05T04:59:37.383Z,61.15
2018-11-05T05:00:08.979Z,61.15
2018-11-05T05:00:40.568Z,61.17
2018-11-05T05:01:12.194Z,61.20
2018-11-05T05:01:43.780Z,61.21
2018-11-05T05:02:15.368Z,61.22
2018-11-05T05:02:46.955Z,61.24
2018-11-05T05:03:18.582Z,61.25
2018-11-05T05:03:50.161Z,61.30
2018-11-05T05:04:21.766Z,61.29
2018-11-05T05:04:53.374Z,61.31
2018-11-05T05:05:24.986Z,61.35
2018-11-05T05:05:56.610Z,61.39
2018-11-05T05:06:28.200Z,61.42
2018-11-05T05:06:59.799Z,61.43
2018-11-05T05:07:31.397Z,61.43
2018-11-05T05:08:02.998Z,61.45
2018-11-05T05:08:34.583Z,61.47
2018-11-05T05:09:06.175Z,61.48
2018-11-05T05:09:37.763Z,61.52
2018-11-05T05:10:09.364Z,61.57
2018-11-05T05:10:40.942Z,61.58
2018-11-05T05:11:12.556Z,61.58
2018-11-05T05:11:44.133Z,61.63
2018-11-05T05:12:15.715Z,61.57
2018-11-05T05:12:47.304Z,61.57
2018-11-05T05:13:18.901Z,61.59
2018-11-05T05:13:50.496Z,61.64
2018-11-05T05:14:22.084Z,61.68
2018-11-05T05:14:53.685Z,61.67
2018-11-05T05:15:25.294Z,61.66
2018-11-05T05:15:56.866Z,61.65
2018-11-05T05:16:28.479Z,61.69
2018-11-05T05:17:00.090Z,61.72
2018-11-05T05:17:31.688Z,61.73
2018-11-05T05:18:03.276Z,61.74
2018-11-05T05:18:34.882Z,61.76
2018-11-05T05:19:06.462Z,61.80
2018-11-05T05:19:38.050Z,61.80
2018-11-05T05:20:09.640Z,61.79
2018-11-05T05:20:41.216Z,61.79
2018-11-05T05:21:12.818Z,61.81
2018-11-05T05:21:44.403Z,61.84
2018-11-05T05:22:16.018Z,61.83
2018-11-05T05:22:47.799Z,61.82
2018-11-05T05:23:19.249Z,61.85
2018-11-05T05:23:50.845Z,61.87
2018-11-05T05:24:22.434Z,61.88
2018-11-05T05:24:54.020Z,61.88
2018-11-05T05:25:25.625Z,61.88
2018-11-05T05:25:57.212Z,61.90
2018-11-05T05:26:28.841Z,61.87
2018-11-05T05:27:00.437Z,61.90
2018-11-05T05:27:32.037Z,61.88
2018-11-05T05:28:03.614Z,61.90
2018-11-05T05:28:35.217Z,61.90
2018-11-05T05:29:06.799Z,61.93
2018-11-05T05:29:38.388Z,61.94
2018-11-05T05:30:09.984Z,61.94
2018-11-05T05:30:41.576Z,61.94
2018-11-05T05:31:13.173Z,61.96
2018-11-05T05:31:44.771Z,61.97
2018-11-05T05:32:16.374Z,61.98
2018-11-05T05:32:48.013Z,62.00
2018-11-05T05:33:19.632Z,62.00
2018-11-05T05:33:51.229Z,61.99
2018-11-05T05:34:22.836Z,61.99
2018-11-05T05:34:54.435Z,61.97
2018-11-05T05:35:26.029Z,61.98
2018-11-05T05:35:57.627Z,61.98
2018-11-05T05:36:29.203Z,61.98
2018-11-05T05:37:00.806Z,61.96
2018-11-05T05:37:32.389Z,62.00
2018-11-05T05:38:03.996Z,61.99
2018-11-05T05:38:35.593Z,61.97
2018-11-05T05:39:07.183Z,61.96
2018-11-05T05:39:38.786Z,61.97
2018-11-05T05:40:10.389Z,61.94
2018-11-05T05:40:42.024Z,61.90
2018-11-05T05:41:13.653Z,61.93
2018-11-05T05:41:45.262Z,61.89
2018-11-05T05:42:16.866Z,61.91
2018-11-05T05:42:48.460Z,61.88
2018-11-05T05:43:20.066Z,61.90
2018-11-05T05:43:51.659Z,61.87
2018-11-05T05:44:23.248Z,61.87
2018-11-05T05:44:54.849Z,61.88
2018-11-05T05:45:26.430Z,61.86
2018-11-05T05:45:58.030Z,61.87
2018-11-05T05:46:29.619Z,61.87
2018-11-05T05:47:01.244Z,61.85
2018-11-05T05:47:32.844Z,61.85
2018-11-05T05:48:04.446Z,61.84
2018-11-05T05:48:36.036Z,61.83
2018-11-05T05:49:07.628Z,61.81
2018-11-05T05:49:39.215Z,61.81
2018-11-05T05:50:10.912Z,61.80
2018-11-05T05:50:42.425Z,61.77
2018-11-05T05:51:14.011Z,61.75
2018-11-05T05:51:45.633Z,61.74
2018-11-05T05:52:17.228Z,61.75
2018-11-05T05:52:48.830Z,61.73
2018-11-05T05:53:20.449Z,61.72
2018-11-05T05:53:52.039Z,61.72
2018-11-05T05:54:23.641Z,61.70
2018-11-05T05:54:55.227Z,61.67
2018-11-05T05:55:26.821Z,61.66
2018-11-05T05:55:58.412Z,61.62
2018-11-05T05:56:30.005Z,61.59
2018-11-05T05:57:01.629Z,61.60
2018-11-05T05:57:33.229Z,61.57
2018-11-05T05:58:04.821Z,61.59
2018-11-05T05:58:36.414Z,61.58
2018-11-05T05:59:07.999Z,61.56
2018-11-05T05:59:39.592Z,61.53
2018-11-05T06:00:11.202Z,61.50
2018-11-05T06:00:42.805Z,61.47
2018-11-05T06:01:14.406Z,61.49
2018-11-05T06:01:46.020Z,61.45
2018-11-05T06:02:17.615Z,61.44
2018-11-05T06:02:49.214Z,61.44
2018-11-05T06:03:20.798Z,61.44
2018-11-05T06:03:52.380Z,61.44
2018-11-05T06:04:23.981Z,61.44
2018-11-05T06:04:55.568Z,61.44
2018-11-05T06:05:27.155Z,61.45
2018-11-05T06:05:58.795Z,61.44
2018-11-05T06:06:30.436Z,61.42
2018-11-05T06:07:02.008Z,61.40
2018-11-05T06:07:33.596Z,61.42
2018-11-05T06:08:05.189Z,61.41
2018-11-05T06:08:36.779Z,61.37
2018-11-05T06:09:08.386Z,61.36
2018-11-05T06:09:39.991Z,61.37
2018-11-05T06:10:11.590Z,61.36
2018-11-05T06:10:43.181Z,61.36
2018-11-05T06:11:14.757Z,61.35
2018-11-05T06:11:46.377Z,61.36
2018-11-05T06:12:17.964Z,61.35
2018-11-05T06:12:49.555Z,61.36
2018-11-05T06:13:21.153Z,61.40
2018-11-05T06:13:52.745Z,61.38
2018-11-05T06:14:24.350Z,61.38
2018-11-05T06:14:55.971Z,61.38
2018-11-05T06:15:27.577Z,61.37
2018-11-05T06:15:59.249Z,61.36
2018-11-05T06:16:30.780Z,61.34
2018-11-05T06:17:02.401Z,61.34
2018-11-05T06:17:33.992Z,61.34
2018-11-05T06:18:05.570Z,61.34
2018-11-05T06:18:37.173Z,61.35
2018-11-05T06:19:08.770Z,61.35
2018-11-05T06:19:40.359Z,61.36
2018-11-05T06:20:11.934Z,61.37
2018-11-05T06:20:43.532Z,61.41
2018-11-05T06:21:15.120Z,61.38
2018-11-05T06:21:46.758Z,61.41
2018-11-05T06:22:18.390Z,61.41
2018-11-05T06:22:49.970Z,61.40
2018-11-05T06:23:21.565Z,61.40
2018-11-05T06:23:53.174Z,61.38
2018-11-05T06:24:24.764Z,61.38
2018-11-05T06:24:56.360Z,61.38
2018-11-05T06:25:27.964Z,61.35
2018-11-05T06:25:59.556Z,61.36
2018-11-05T06:26:31.177Z,61.36
2018-11-05T06:27:02.814Z,61.35
2018-11-05T06:27:34.429Z,61.35
2018-11-05T06:28:06.021Z,61.37
2018-11-05T06:28:37.691Z,61.38
2018-11-05T06:29:09.219Z,61.38
2018-11-05T06:29:40.808Z,61.39
2018-11-05T06:30:12.406Z,61.38
2018-11-05T06:30:44.923Z,61.40
2018-11-05T06:31:16.512Z,61.40
2018-11-05T06:31:48.129Z,61.43
2018-11-05T06:32:19.758Z,61.43
2018-11-05T06:32:51.351Z,61.41
2018-11-05T06:33:22.940Z,61.42
2018-11-05T06:33:54.536Z,61.44
2018-11-05T06:34:26.125Z,61.42
2018-11-05T06:34:57.712Z,61.43
2018-11-05T06:35:29.344Z,61.45
2018-11-05T06:36:00.943Z,61.44
2018-11-05T06:36:32.541Z,61.47
2018-11-05T06:37:04.169Z,61.48
2018-11-05T06:37:35.776Z,61.50
2018-11-05T06:38:07.369Z,61.50
2018-11-05T06:38:38.970Z,61.51
2018-11-05T06:39:10.550Z,61.50
2018-11-05T06:39:42.127Z,61.52
2018-11-05T06:40:13.716Z,61.51
2018-11-05T06:40:45.318Z,61.51
2018-11-05T06:41:16.987Z,61.51
2018-11-05T06:41:48.573Z,61.50
2018-11-05T06:42:20.192Z,61.53
2018-11-05T06:42:51.813Z,61.53
2018-11-05T06:43:23.404Z,61.52
2018-11-05T06:43:55.007Z,61.54
2018-11-05T06:44:27.623Z,61.53
2018-11-05T06:44:59.263Z,61.52
2018-11-05T06:45:30.974Z,61.53
2018-11-05T06:46:02.477Z,61.51
2018-11-05T06:46:34.067Z,61.53
2018-11-05T06:47:05.676Z,61.53